Time;durP1;ratioP1;P1;durP2;ratioP2;P2;SDS_P1;SDS_P2;PMS_P1;PMS_P2;Temp;Humidity;BMP_temperature;BMP_pressure;BME280_temperature;BME280_humidity;BME280_pressure;Samples;Min_cycle;Max_cycle;Signal;HPM_P1;HPM_P2
2023/09/17 00:02:13;;;;;;;4.53;4.13;;;;;;;;;;4927699;29;20181;-75
2023/09/17 00:04:38;;;;;;;4.63;4.23;;;;;;;;;;4932093;29;20279;-75
2023/09/17 00:07:03;;;;;;;4.40;4.03;;;;;;;;;;4933594;29;20275;-75
2023/09/17 00:09:29;;;;;;;5.00;4.60;;;;;;;;;;4928558;29;20258;-74
2023/09/17 00:11:54;;;;;;;4.10;3.70;;;;;;;;;;4916131;29;20184;-74
2023/09/17 00:14:19;;;;;;;3.90;3.60;;;;;;;;;;4917155;29;20183;-74
2023/09/17 00:16:45;;;;;;;4.83;4.43;;;;;;;;;;4933495;28;20199;-74
2023/09/17 00:19:10;;;;;;;4.93;4.53;;;;;;;;;;4929413;29;20184;-75
2023/09/17 00:21:35;;;;;;;4.80;4.10;;;;;;;;;;4915757;29;20180;-74
2023/09/17 00:24:00;;;;;;;5.03;4.63;;;;;;;;;;4931748;29;20203;-75
2023/09/17 00:26:25;;;;;;;4.97;4.47;;;;;;;;;;4930483;29;20201;-75
2023/09/17 00:28:51;;;;;;;6.40;4.63;;;;;;;;;;4916112;29;20325;-74
2023/09/17 00:31:16;;;;;;;5.33;4.83;;;;;;;;;;4931174;29;20178;-74
2023/09/17 00:33:41;;;;;;;5.20;4.80;;;;;;;;;;4930842;29;20187;-74
2023/09/17 00:36:06;;;;;;;5.07;4.67;;;;;;;;;;4927698;29;20207;-74
2023/09/17 00:38:31;;;;;;;7.07;5.03;;;;;;;;;;4931473;29;20187;-74
2023/09/17 00:40:59;;;;;;;4.80;4.40;;;;;;;;;;4909939;29;20296;-74
2023/09/17 00:43:24;;;;;;;5.00;4.60;;;;;;;;;;4914321;29;20192;-74
2023/09/17 00:45:49;;;;;;;6.17;4.80;;;;;;;;;;4933526;29;20213;-74
2023/09/17 00:48:15;;;;;;;4.87;4.23;;;;;;;;;;4932491;29;20210;-74
2023/09/17 00:50:40;;;;;;;4.43;4.13;;;;;;;;;;4931057;29;20237;-74
2023/09/17 00:53:06;;;;;;;4.80;4.40;;;;;;;;;;4916314;29;20175;-74
2023/09/17 00:55:31;;;;;;;5.73;4.60;;;;;;;;;;4929999;29;20406;-74
2023/09/17 00:57:58;;;;;;;4.63;4.10;;;;;;;;;;4929781;29;20179;-74
2023/09/17 01:00:24;;;;;;;4.97;4.57;;;;;;;;;;4931562;29;20187;-74
2023/09/17 01:02:49;;;;;;;5.00;4.60;;;;;;;;;;4933065;29;20383;-74
2023/09/17 01:05:14;;;;;;;4.07;3.77;;;;;;;;;;4929872;29;20180;-74
2023/09/17 01:07:40;;;;;;;4.37;3.97;;;;;;;;;;4932272;29;20215;-74
2023/09/17 01:10:06;;;;;;;4.63;4.13;;;;;;;;;;4927123;29;20184;-74
2023/09/17 01:12:31;;;;;;;4.27;3.93;;;;;;;;;;4935851;29;20216;-74
2023/09/17 01:14:57;;;;;;;4.70;4.30;;;;;;;;;;4930726;29;20212;-74
2023/09/17 01:17:27;;;;;;;4.40;4.00;;;;;;;;;;4934517;28;20257;-74
2023/09/17 01:19:53;;;;;;;4.50;4.03;;;;;;;;;;4929035;29;20181;-74
2023/09/17 01:22:21;;;;;;;4.67;3.83;;;;;;;;;;4916274;29;20215;-74
2023/09/17 01:25:04;;;;;;;4.37;3.70;;;;;;;;;;4930720;29;20233;-74
2023/09/17 01:27:30;;;;;;;4.10;3.70;;;;;;;;;;4928538;29;20240;-74
2023/09/17 01:29:55;;;;;;;3.77;3.47;;;;;;;;;;4935168;29;20208;-73
2023/09/17 01:32:20;;;;;;;7.40;3.90;;;;;;;;;;4935958;29;20209;-74
2023/09/17 01:34:49;;;;;;;4.40;3.70;;;;;;;;;;4933262;29;20188;-74
2023/09/17 01:37:17;;;;;;;3.60;3.30;;;;;;;;;;4934572;29;20187;-74
2023/09/17 01:39:46;;;;;;;3.80;3.50;;;;;;;;;;4918365;29;20255;-74
2023/09/17 01:42:12;;;;;;;4.33;3.93;;;;;;;;;;4935812;29;20232;-74
2023/09/17 01:44:38;;;;;;;4.00;3.50;;;;;;;;;;4916308;29;20275;-74
2023/09/17 01:47:04;;;;;;;4.43;3.40;;;;;;;;;;4934936;29;20198;-74
2023/09/17 01:49:32;;;;;;;3.53;3.10;;;;;;;;;;4934591;29;20197;-74
2023/09/17 01:51:57;;;;;;;4.03;3.40;;;;;;;;;;4934955;29;20167;-74
2023/09/17 01:54:25;;;;;;;6.30;3.30;;;;;;;;;;4917733;29;20182;-74
2023/09/17 01:56:51;;;;;;;3.23;3.03;;;;;;;;;;4935480;29;20244;-74
2023/09/17 01:59:16;;;;;;;3.57;3.20;;;;;;;;;;4934179;29;20275;-74
2023/09/17 02:01:42;;;;;;;3.50;2.80;;;;;;;;;;4917238;29;20221;-74
2023/09/17 02:04:07;;;;;;;2.83;2.63;;;;;;;;;;4915899;29;20183;-74
2023/09/17 02:06:32;;;;;;;4.00;3.10;;;;;;;;;;4918388;29;20204;-74
2023/09/17 02:08:58;;;;;;;3.73;3.10;;;;;;;;;;4934182;29;20232;-74
2023/09/17 02:11:23;;;;;;;3.53;2.67;;;;;;;;;;4924795;29;20215;-74
2023/09/17 02:13:48;;;;;;;3.97;3.07;;;;;;;;;;4919226;29;20243;-74
2023/09/17 02:16:14;;;;;;;4.30;2.93;;;;;;;;;;4934874;29;20198;-74
2023/09/17 02:18:39;;;;;;;3.17;2.87;;;;;;;;;;4930953;29;20234;-74
2023/09/17 02:21:05;;;;;;;3.30;3.00;;;;;;;;;;4918823;29;20224;-74
2023/09/17 02:23:30;;;;;;;4.13;2.47;;;;;;;;;;4932670;29;20271;-74
2023/09/17 02:25:56;;;;;;;4.83;3.40;;;;;;;;;;4935089;29;20271;-74
2023/09/17 02:28:21;;;;;;;3.30;2.83;;;;;;;;;;4930483;29;20248;-74
2023/09/17 02:30:46;;;;;;;2.87;2.60;;;;;;;;;;4935287;29;20203;-74
2023/09/17 02:33:12;;;;;;;2.80;2.60;;;;;;;;;;4917658;29;20504;-74
2023/09/17 02:35:37;;;;;;;3.20;2.90;;;;;;;;;;4932356;29;20180;-74
2023/09/17 02:38:03;;;;;;;3.53;3.00;;;;;;;;;;4918593;29;20182;-74
2023/09/17 02:40:29;;;;;;;4.07;2.97;;;;;;;;;;4916310;29;20179;-74
2023/09/17 02:42:54;;;;;;;4.43;3.00;;;;;;;;;;4933700;29;20228;-74
2023/09/17 02:45:19;;;;;;;3.43;2.90;;;;;;;;;;4935911;29;20188;-74
2023/09/17 02:47:44;;;;;;;4.00;2.80;;;;;;;;;;4916086;29;20197;-74
2023/09/17 02:50:10;;;;;;;3.33;2.83;;;;;;;;;;4932109;29;20200;-74
2023/09/17 02:52:35;;;;;;;5.13;2.93;;;;;;;;;;4930241;29;20249;-74
2023/09/17 02:55:00;;;;;;;2.77;2.57;;;;;;;;;;4933120;29;20176;-74
2023/09/17 02:57:25;;;;;;;4.10;2.93;;;;;;;;;;4933096;29;20184;-74
2023/09/17 02:59:51;;;;;;;5.47;3.00;;;;;;;;;;4913557;29;20223;-74
2023/09/17 03:02:17;;;;;;;4.37;3.00;;;;;;;;;;4913880;29;20178;-74
2023/09/17 03:04:43;;;;;;;4.33;3.10;;;;;;;;;;4914923;29;20191;-74
2023/09/17 03:07:08;;;;;;;4.97;2.90;;;;;;;;;;4933114;29;20249;-74
2023/09/17 03:09:34;;;;;;;5.37;3.43;;;;;;;;;;4912854;29;20213;-74
2023/09/17 03:11:59;;;;;;;4.37;2.67;;;;;;;;;;4934374;29;20188;-73
2023/09/17 03:14:24;;;;;;;4.00;2.80;;;;;;;;;;4932908;29;20285;-74
2023/09/17 03:16:49;;;;;;;3.37;2.77;;;;;;;;;;4930532;28;20206;-73
2023/09/17 03:19:14;;;;;;;3.27;2.93;;;;;;;;;;4932994;29;20187;-74
2023/09/17 03:21:40;;;;;;;4.10;2.70;;;;;;;;;;4934324;29;20194;-74
2023/09/17 03:24:06;;;;;;;3.20;2.90;;;;;;;;;;4920376;29;20182;-74
2023/09/17 03:26:31;;;;;;;4.17;3.07;;;;;;;;;;4932074;29;20205;-74
2023/09/17 03:28:57;;;;;;;4.17;2.57;;;;;;;;;;4931925;29;20191;-74
2023/09/17 03:31:23;;;;;;;3.30;2.40;;;;;;;;;;4932698;29;20185;-74
2023/09/17 03:33:49;;;;;;;4.97;2.97;;;;;;;;;;4912356;29;20185;-74
2023/09/17 03:36:14;;;;;;;2.70;2.50;;;;;;;;;;4917508;29;20182;-74
2023/09/17 03:38:39;;;;;;;3.30;2.70;;;;;;;;;;4919415;29;20245;-74
2023/09/17 03:41:04;;;;;;;4.13;2.77;;;;;;;;;;4930219;29;20181;-73
2023/09/17 03:43:30;;;;;;;3.70;3.03;;;;;;;;;;4914623;29;20209;-74
2023/09/17 03:45:55;;;;;;;3.43;2.73;;;;;;;;;;4934338;29;20216;-74
2023/09/17 03:48:21;;;;;;;3.10;2.80;;;;;;;;;;4932363;29;20197;-74
2023/09/17 03:50:46;;;;;;;2.70;2.50;;;;;;;;;;4934069;29;20193;-74
2023/09/17 03:53:12;;;;;;;2.73;2.43;;;;;;;;;;4934811;29;20175;-74
2023/09/17 03:55:37;;;;;;;3.37;2.87;;;;;;;;;;4933252;29;20178;-74
2023/09/17 03:58:03;;;;;;;3.60;2.63;;;;;;;;;;4912511;29;20186;-73
2023/09/17 04:00:29;;;;;;;3.17;2.50;;;;;;;;;;4932127;29;20203;-74
2023/09/17 04:02:55;;;;;;;3.30;2.80;;;;;;;;;;4932694;29;20183;-74
2023/09/17 04:05:21;;;;;;;5.03;4.63;;;;;;;;;;4926539;29;21606;-74
2023/09/17 04:07:47;;;;;;;4.17;3.07;;;;;;;;;;4915135;29;20202;-74
2023/09/17 04:10:13;;;;;;;4.27;2.97;;;;;;;;;;4912881;29;20231;-74
2023/09/17 04:12:39;;;;;;;3.23;2.93;;;;;;;;;;4934729;29;20194;-74
2023/09/17 04:15:12;;;;;;;2.83;2.63;;;;;;;;;;4930664;29;20228;-73
2023/09/17 04:17:37;;;;;;;3.33;3.03;;;;;;;;;;4916090;29;20232;-74
2023/09/17 04:20:11;;;;;;;3.73;3.13;;;;;;;;;;4930952;29;20234;-73
2023/09/17 04:22:36;;;;;;;2.90;2.60;;;;;;;;;;4933023;29;20182;-74
2023/09/17 04:25:01;;;;;;;4.10;3.10;;;;;;;;;;4931464;29;20189;-73
2023/09/17 04:27:27;;;;;;;3.03;2.63;;;;;;;;;;4933114;29;20200;-74
2023/09/17 04:29:52;;;;;;;4.37;3.07;;;;;;;;;;4931718;29;20175;-74
2023/09/17 04:32:17;;;;;;;4.13;3.20;;;;;;;;;;4932988;29;20258;-74
2023/09/17 04:34:43;;;;;;;3.93;2.77;;;;;;;;;;4914134;29;20178;-74
2023/09/17 04:37:10;;;;;;;2.80;2.50;;;;;;;;;;4933274;29;20193;-74
2023/09/17 04:39:35;;;;;;;3.57;2.77;;;;;;;;;;4906631;29;20217;-74
2023/09/17 04:42:01;;;;;;;6.07;2.50;;;;;;;;;;4931806;29;20215;-74
2023/09/17 04:44:26;;;;;;;3.40;3.10;;;;;;;;;;4930479;29;20181;-74
2023/09/17 04:46:51;;;;;;;3.90;2.77;;;;;;;;;;4918195;29;20205;-74
2023/09/17 04:49:16;;;;;;;4.17;2.87;;;;;;;;;;4933668;29;20174;-74
2023/09/17 04:51:42;;;;;;;4.80;3.03;;;;;;;;;;4915685;29;20173;-74
2023/09/17 04:54:07;;;;;;;4.87;3.00;;;;;;;;;;4931545;29;20184;-73
2023/09/17 04:56:32;;;;;;;4.43;2.97;;;;;;;;;;4931327;29;20246;-74
2023/09/17 04:58:58;;;;;;;5.63;3.20;;;;;;;;;;4931586;29;20247;-73
2023/09/17 05:01:23;;;;;;;3.40;3.00;;;;;;;;;;4919367;29;20199;-74
2023/09/17 05:03:48;;;;;;;6.03;2.90;;;;;;;;;;4933967;29;20272;-74
2023/09/17 05:06:13;;;;;;;7.97;2.63;;;;;;;;;;4933918;29;20316;-74
2023/09/17 05:08:39;;;;;;;4.57;3.40;;;;;;;;;;4918207;29;20267;-73
2023/09/17 05:11:05;;;;;;;3.20;2.90;;;;;;;;;;4934414;29;20215;-73
2023/09/17 05:13:30;;;;;;;4.47;3.20;;;;;;;;;;4928979;29;20236;-74
2023/09/17 05:15:56;;;;;;;6.87;3.10;;;;;;;;;;4918721;29;20202;-74
2023/09/17 05:18:21;;;;;;;7.60;4.07;;;;;;;;;;4934024;29;20313;-74
2023/09/17 05:20:48;;;;;;;3.80;3.20;;;;;;;;;;4935010;29;20175;-74
2023/09/17 05:23:13;;;;;;;4.57;2.90;;;;;;;;;;4935599;29;20183;-74
2023/09/17 05:25:38;;;;;;;5.23;3.30;;;;;;;;;;4918780;29;20177;-74
2023/09/17 05:28:06;;;;;;;8.10;3.00;;;;;;;;;;4931729;29;20209;-74
2023/09/17 05:30:35;;;;;;;4.03;3.17;;;;;;;;;;4916469;29;20188;-74
2023/09/17 05:33:00;;;;;;;3.97;3.10;;;;;;;;;;4932394;29;20180;-74
2023/09/17 05:35:26;;;;;;;4.30;3.17;;;;;;;;;;4933969;29;20176;-74
2023/09/17 05:37:51;;;;;;;5.43;3.40;;;;;;;;;;4930391;29;20216;-73
2023/09/17 05:40:16;;;;;;;4.00;3.40;;;;;;;;;;4918006;29;20266;-74
2023/09/17 05:42:43;;;;;;;3.90;3.23;;;;;;;;;;4918370;29;20182;-74
2023/09/17 05:45:08;;;;;;;4.20;3.70;;;;;;;;;;4936033;29;20189;-73
2023/09/17 05:47:33;;;;;;;5.33;3.03;;;;;;;;;;4915453;29;20204;-74
2023/09/17 05:49:59;;;;;;;6.63;2.97;;;;;;;;;;4932595;29;20181;-74
2023/09/17 05:52:24;;;;;;;5.87;3.93;;;;;;;;;;4919253;29;20180;-74
2023/09/17 05:54:49;;;;;;;4.73;2.90;;;;;;;;;;4935714;29;20213;-74
2023/09/17 05:57:16;;;;;;;9.53;3.43;;;;;;;;;;4935612;29;20216;-74
2023/09/17 05:59:41;;;;;;;5.33;3.20;;;;;;;;;;4933902;29;20224;-74
2023/09/17 06:02:07;;;;;;;3.20;2.77;;;;;;;;;;4934153;29;20188;-73
2023/09/17 06:04:32;;;;;;;6.47;3.17;;;;;;;;;;4934275;29;20204;-73
2023/09/17 06:06:58;;;;;;;8.03;3.93;;;;;;;;;;4935274;29;20256;-74
2023/09/17 06:09:23;;;;;;;4.90;2.93;;;;;;;;;;4932390;29;20235;-74
2023/09/17 06:11:48;;;;;;;4.13;2.87;;;;;;;;;;4927901;29;20181;-74
2023/09/17 06:14:14;;;;;;;5.33;3.20;;;;;;;;;;4934315;29;20177;-73
2023/09/17 06:16:39;;;;;;;5.87;3.13;;;;;;;;;;4933698;29;20202;-74
2023/09/17 06:19:04;;;;;;;4.20;3.10;;;;;;;;;;4933278;29;20209;-74
2023/09/17 06:21:30;;;;;;;3.30;2.60;;;;;;;;;;4931284;29;20191;-74
2023/09/17 06:23:55;;;;;;;3.93;3.00;;;;;;;;;;4933305;29;20181;-74
2023/09/17 06:26:20;;;;;;;4.80;3.03;;;;;;;;;;4933546;29;20231;-74
2023/09/17 06:28:45;;;;;;;5.83;2.80;;;;;;;;;;4917890;29;20216;-74
2023/09/17 06:31:10;;;;;;;6.87;2.73;;;;;;;;;;4932836;29;20193;-74
2023/09/17 06:33:36;;;;;;;3.93;2.67;;;;;;;;;;4921262;29;20207;-74
2023/09/17 06:36:01;;;;;;;5.83;3.33;;;;;;;;;;4933120;29;20181;-75
2023/09/17 06:38:27;;;;;;;3.83;3.10;;;;;;;;;;4929127;29;20225;-74
2023/09/17 06:40:52;;;;;;;6.20;3.17;;;;;;;;;;4935098;29;20177;-74
2023/09/17 06:43:17;;;;;;;4.47;3.20;;;;;;;;;;4921919;29;20182;-74
2023/09/17 06:45:42;;;;;;;4.70;2.77;;;;;;;;;;4938284;29;20188;-74
2023/09/17 06:48:07;;;;;;;6.23;2.83;;;;;;;;;;4933371;29;20208;-73
2023/09/17 06:50:33;;;;;;;4.00;2.83;;;;;;;;;;4934399;29;20174;-74
2023/09/17 06:52:58;;;;;;;3.00;2.60;;;;;;;;;;4941220;29;20173;-74
2023/09/17 06:55:23;;;;;;;3.70;2.83;;;;;;;;;;4933765;29;20246;-74
2023/09/17 06:57:48;;;;;;;4.60;2.60;;;;;;;;;;4932920;29;20182;-74
2023/09/17 07:00:15;;;;;;;6.33;3.00;;;;;;;;;;4930644;29;20197;-74
2023/09/17 07:02:40;;;;;;;5.03;2.97;;;;;;;;;;4930105;29;20224;-74
2023/09/17 07:05:07;;;;;;;5.70;2.73;;;;;;;;;;4928429;29;20205;-74
2023/09/17 07:07:32;;;;;;;9.60;3.00;;;;;;;;;;4938923;29;20205;-74
2023/09/17 07:09:58;;;;;;;3.50;2.67;;;;;;;;;;4936025;29;20179;-74
2023/09/17 07:12:23;;;;;;;4.10;2.83;;;;;;;;;;4919938;29;20201;-74
2023/09/17 07:14:48;;;;;;;3.40;2.40;;;;;;;;;;4935958;29;20231;-73
2023/09/17 07:17:13;;;;;;;3.00;2.70;;;;;;;;;;4934974;29;20358;-73
2023/09/17 07:19:39;;;;;;;5.97;2.83;;;;;;;;;;4933834;29;20219;-74
2023/09/17 07:22:05;;;;;;;5.43;2.77;;;;;;;;;;4932761;29;20183;-74
2023/09/17 07:24:30;;;;;;;5.33;2.73;;;;;;;;;;4929867;29;20227;-74
2023/09/17 07:26:55;;;;;;;3.73;2.67;;;;;;;;;;4915588;29;20197;-74
2023/09/17 07:29:20;;;;;;;3.57;2.57;;;;;;;;;;4933106;29;20195;-74
2023/09/17 07:31:47;;;;;;;5.17;3.00;;;;;;;;;;4917864;29;20192;-74
2023/09/17 07:34:12;;;;;;;4.17;3.23;;;;;;;;;;4928806;29;20169;-74
2023/09/17 07:36:37;;;;;;;4.00;3.50;;;;;;;;;;4914733;29;20195;-74
2023/09/17 07:39:03;;;;;;;5.33;3.40;;;;;;;;;;4933737;29;20180;-75
2023/09/17 07:41:28;;;;;;;3.20;2.90;;;;;;;;;;4932490;29;20251;-74
2023/09/17 07:43:54;;;;;;;6.07;3.20;;;;;;;;;;4930364;29;20183;-74
2023/09/17 07:46:19;;;;;;;7.60;2.73;;;;;;;;;;4931218;29;20295;-74
2023/09/17 07:48:46;;;;;;;7.27;3.37;;;;;;;;;;4930770;29;20179;-74
2023/09/17 07:51:11;;;;;;;4.10;3.50;;;;;;;;;;4930198;29;20204;-74
2023/09/17 07:53:36;;;;;;;3.23;3.00;;;;;;;;;;4913327;29;20208;-74
2023/09/17 07:56:01;;;;;;;4.27;3.00;;;;;;;;;;4931545;29;20592;-74
2023/09/17 07:58:27;;;;;;;3.67;2.33;;;;;;;;;;4933676;29;20186;-74
2023/09/17 08:00:53;;;;;;;4.57;3.43;;;;;;;;;;4933287;29;20192;-74
2023/09/17 08:03:18;;;;;;;5.47;3.10;;;;;;;;;;4930602;29;20184;-74
2023/09/17 08:05:45;;;;;;;5.37;3.30;;;;;;;;;;4929707;29;20177;-74
2023/09/17 08:08:10;;;;;;;4.70;3.13;;;;;;;;;;4934339;29;20301;-73
2023/09/17 08:10:36;;;;;;;8.93;3.13;;;;;;;;;;4914876;29;20738;-74
2023/09/17 08:13:01;;;;;;;4.40;3.00;;;;;;;;;;4937191;29;20186;-74
2023/09/17 08:15:29;;;;;;;6.47;3.37;;;;;;;;;;4931746;29;20188;-74
2023/09/17 08:17:54;;;;;;;6.37;3.57;;;;;;;;;;4915173;29;20230;-74
2023/09/17 08:20:20;;;;;;;9.33;3.80;;;;;;;;;;4931067;29;20181;-74
2023/09/17 08:22:45;;;;;;;6.67;3.63;;;;;;;;;;4918918;29;20197;-75
2023/09/17 08:25:11;;;;;;;5.97;3.97;;;;;;;;;;4908903;29;20217;-74
2023/09/17 08:27:37;;;;;;;7.03;3.60;;;;;;;;;;4930770;29;20198;-74
2023/09/17 08:30:11;;;;;;;5.32;3.10;;;;;;;;;;4916864;29;20251;-74
2023/09/17 08:32:36;;;;;;;9.05;3.65;;;;;;;;;;4927510;29;20174;-74
2023/09/17 08:35:03;;;;;;;6.43;3.50;;;;;;;;;;4933134;29;20253;-74
2023/09/17 08:37:29;;;;;;;6.07;3.85;;;;;;;;;;4933692;29;20240;-74
2023/09/17 08:39:54;;;;;;;10.00;4.65;;;;;;;;;;4932057;29;20181;-74
2023/09/17 08:42:21;;;;;;;6.43;4.03;;;;;;;;;;4917536;29;20183;-74
2023/09/17 08:44:46;;;;;;;6.22;4.35;;;;;;;;;;4937654;29;20261;-74
2023/09/17 08:47:12;;;;;;;7.57;4.40;;;;;;;;;;4912890;29;20302;-74
2023/09/17 08:49:38;;;;;;;7.22;3.70;;;;;;;;;;4922871;29;20193;-74
2023/09/17 08:52:04;;;;;;;9.38;4.22;;;;;;;;;;4930595;29;20197;-74
2023/09/17 08:54:36;;;;;;;6.15;4.05;;;;;;;;;;4931356;29;20174;-74
2023/09/17 08:57:03;;;;;;;6.25;3.58;;;;;;;;;;4929954;29;20201;-74
2023/09/17 08:59:29;;;;;;;11.35;4.55;;;;;;;;;;4914930;29;20309;-74
2023/09/17 09:01:55;;;;;;;6.97;3.50;;;;;;;;;;4916048;29;20208;-74
2023/09/17 09:04:22;;;;;;;12.98;4.60;;;;;;;;;;4934365;29;20174;-74
2023/09/17 09:06:47;;;;;;;11.05;3.60;;;;;;;;;;4932561;29;20202;-74
2023/09/17 09:09:14;;;;;;;11.43;4.35;;;;;;;;;;4912945;29;20182;-73
2023/09/17 09:11:39;;;;;;;8.38;3.72;;;;;;;;;;4927483;29;20174;-74
2023/09/17 09:14:06;;;;;;;11.55;3.67;;;;;;;;;;4928682;29;20183;-74
2023/09/17 09:16:37;;;;;;;7.30;3.85;;;;;;;;;;4930029;29;20222;-74
2023/09/17 09:19:03;;;;;;;7.43;3.63;;;;;;;;;;4929890;29;20206;-74
2023/09/17 09:21:28;;;;;;;7.45;3.40;;;;;;;;;;4928321;29;20214;-74
2023/09/17 09:23:57;;;;;;;7.40;3.38;;;;;;;;;;4927335;29;20273;-74
2023/09/17 09:26:31;;;;;;;11.23;3.45;;;;;;;;;;4927745;29;20214;-74
2023/09/17 09:28:56;;;;;;;11.38;3.35;;;;;;;;;;4930379;29;20186;-74
2023/09/17 09:31:21;;;;;;;7.85;3.10;;;;;;;;;;4930802;29;20198;-74
2023/09/17 09:33:48;;;;;;;5.32;3.28;;;;;;;;;;4911132;29;20210;-74
2023/09/17 09:36:13;;;;;;;6.28;3.00;;;;;;;;;;4927368;29;20192;-74
2023/09/17 09:38:38;;;;;;;7.30;3.80;;;;;;;;;;4930175;29;20179;-74
2023/09/17 09:41:04;;;;;;;5.18;3.22;;;;;;;;;;4930466;29;20182;-74
2023/09/17 09:43:30;;;;;;;6.60;3.42;;;;;;;;;;4912018;29;20194;-74
2023/09/17 09:46:00;;;;;;;6.10;3.50;;;;;;;;;;4928823;29;20182;-75
2023/09/17 09:48:27;;;;;;;5.15;3.85;;;;;;;;;;4928230;29;20182;-74
2023/09/17 09:50:52;;;;;;;7.72;3.80;;;;;;;;;;4932711;29;20242;-74
2023/09/17 09:53:18;;;;;;;6.28;3.67;;;;;;;;;;4917412;29;20186;-74
2023/09/17 09:55:44;;;;;;;6.75;3.70;;;;;;;;;;4937030;29;20186;-74
2023/09/17 09:58:10;;;;;;;6.50;4.10;;;;;;;;;;4919448;29;20190;-74
2023/09/17 10:00:35;;;;;;;8.63;3.70;;;;;;;;;;4934644;29;20174;-74
2023/09/17 10:03:01;;;;;;;7.40;3.28;;;;;;;;;;4937357;29;21851;-74
2023/09/17 10:05:37;;;;;;;5.90;3.00;;;;;;;;;;4917033;29;20276;-74
2023/09/17 10:08:06;;;;;;;5.90;3.13;;;;;;;;;;4932820;29;20397;-74
2023/09/17 10:10:32;;;;;;;7.32;3.83;;;;;;;;;;4916743;29;20245;-74
2023/09/17 10:12:59;;;;;;;7.30;3.47;;;;;;;;;;4918399;29;20174;-75
2023/09/17 10:15:24;;;;;;;5.55;3.10;;;;;;;;;;4930726;29;20189;-75
2023/09/17 10:17:49;;;;;;;6.57;3.17;;;;;;;;;;4935087;29;20230;-74
2023/09/17 10:20:15;;;;;;;6.35;3.45;;;;;;;;;;4933792;29;20210;-74
2023/09/17 10:22:41;;;;;;;6.38;2.95;;;;;;;;;;4930882;29;20272;-74
2023/09/17 10:25:08;;;;;;;4.55;2.88;;;;;;;;;;4930023;29;20188;-75
2023/09/17 10:27:35;;;;;;;7.13;3.40;;;;;;;;;;4929489;29;20206;-74
2023/09/17 10:30:03;;;;;;;5.88;3.42;;;;;;;;;;4913369;29;20202;-74
2023/09/17 10:32:29;;;;;;;6.10;3.13;;;;;;;;;;4914798;29;20190;-75
2023/09/17 10:34:57;;;;;;;7.53;3.05;;;;;;;;;;4914181;29;20178;-74
2023/09/17 10:37:23;;;;;;;4.72;2.80;;;;;;;;;;4911899;29;20186;-75
2023/09/17 10:39:48;;;;;;;8.52;3.28;;;;;;;;;;4930474;29;20194;-74
2023/09/17 10:42:15;;;;;;;6.90;3.20;;;;;;;;;;4933600;29;20185;-74
2023/09/17 10:44:42;;;;;;;5.78;3.28;;;;;;;;;;4921215;29;20214;-74
2023/09/17 10:47:09;;;;;;;10.77;3.17;;;;;;;;;;4931722;29;20194;-74
2023/09/17 10:49:36;;;;;;;5.93;3.08;;;;;;;;;;4929030;29;20194;-75
2023/09/17 10:52:02;;;;;;;3.33;2.80;;;;;;;;;;4933086;29;20189;-74
2023/09/17 10:54:27;;;;;;;7.70;3.13;;;;;;;;;;4932019;29;20186;-74
2023/09/17 10:56:54;;;;;;;5.22;3.30;;;;;;;;;;4934762;29;20193;-74
2023/09/17 10:59:19;;;;;;;5.60;3.20;;;;;;;;;;4929800;29;20316;-74
2023/09/17 11:01:46;;;;;;;5.47;3.35;;;;;;;;;;4931306;29;20265;-74
2023/09/17 11:04:18;;;;;;;8.98;3.38;;;;;;;;;;4930906;29;20183;-74
2023/09/17 11:06:44;;;;;;;9.48;3.63;;;;;;;;;;4918953;29;20206;-74
2023/09/17 11:09:11;;;;;;;7.35;3.60;;;;;;;;;;4931940;29;20182;-74
2023/09/17 11:11:36;;;;;;;5.07;3.17;;;;;;;;;;4915769;29;20346;-75
2023/09/17 11:14:03;;;;;;;8.70;3.70;;;;;;;;;;4932353;29;20182;-74
2023/09/17 11:16:28;;;;;;;8.73;3.10;;;;;;;;;;4938143;29;20240;-75
2023/09/17 11:19:03;;;;;;;4.78;2.80;;;;;;;;;;4913323;29;20253;-74
2023/09/17 11:21:28;;;;;;;6.10;3.38;;;;;;;;;;4930047;29;20200;-74
2023/09/17 11:23:55;;;;;;;7.97;4.10;;;;;;;;;;4933022;29;20392;-75
2023/09/17 11:26:24;;;;;;;4.97;3.42;;;;;;;;;;4932364;29;20214;-74
2023/09/17 11:28:55;;;;;;;5.25;3.25;;;;;;;;;;4916673;29;20234;-75
2023/09/17 11:31:21;;;;;;;6.68;3.80;;;;;;;;;;4932576;29;20185;-74
2023/09/17 11:33:48;;;;;;;4.78;2.83;;;;;;;;;;4930325;29;20174;-74
2023/09/17 11:36:13;;;;;;;8.35;3.13;;;;;;;;;;4932838;29;20299;-74
2023/09/17 11:38:44;;;;;;;5.63;2.60;;;;;;;;;;4930017;29;20215;-74
2023/09/17 11:41:10;;;;;;;7.60;3.10;;;;;;;;;;4925867;29;20192;-74
2023/09/17 11:43:38;;;;;;;4.95;2.88;;;;;;;;;;4910763;29;20214;-74
2023/09/17 11:46:05;;;;;;;5.72;2.60;;;;;;;;;;4929518;29;20667;-75
2023/09/17 11:48:31;;;;;;;8.35;3.05;;;;;;;;;;4923453;29;20239;-74
2023/09/17 11:51:35;;;;;;;3.90;2.22;;;;;;;;;;4927012;29;20209;-74
2023/09/17 11:54:04;;;;;;;5.72;2.33;;;;;;;;;;4852929;29;20185;-75
2023/09/17 11:56:29;;;;;;;4.80;2.40;;;;;;;;;;4833773;29;20203;-75
2023/09/17 11:58:57;;;;;;;4.88;2.25;;;;;;;;;;4855645;29;20287;-75
2023/09/17 12:01:23;;;;;;;3.95;2.30;;;;;;;;;;4854253;29;20201;-74
2023/09/17 12:03:49;;;;;;;4.15;2.63;;;;;;;;;;4856161;29;20234;-74
2023/09/17 12:06:16;;;;;;;5.38;2.45;;;;;;;;;;4859311;29;20192;-74
2023/09/17 12:08:43;;;;;;;4.95;2.45;;;;;;;;;;4855386;29;20177;-74
2023/09/17 12:11:21;;;;;;;3.92;2.22;;;;;;;;;;4850622;29;20197;-74
2023/09/17 12:13:47;;;;;;;3.10;2.40;;;;;;;;;;4853178;29;20187;-75
2023/09/17 12:16:12;;;;;;;4.10;2.30;;;;;;;;;;4855209;29;20209;-74
2023/09/17 12:18:37;;;;;;;5.28;2.20;;;;;;;;;;4852934;29;20232;-75
2023/09/17 12:21:09;;;;;;;4.40;2.38;;;;;;;;;;4852135;29;20176;-74
2023/09/17 12:24:28;;;;;;;3.90;2.05;;;;;;;;;;4852770;29;20188;-74
2023/09/17 12:26:54;;;;;;;5.57;2.10;;;;;;;;;;4920739;29;20206;-74
2023/09/17 12:29:19;;;;;;;2.40;2.20;;;;;;;;;;4925664;29;20300;-74
2023/09/17 12:31:44;;;;;;;4.13;2.40;;;;;;;;;;4929630;29;20218;-74
2023/09/17 12:34:10;;;;;;;5.38;2.75;;;;;;;;;;4929077;29;20182;-74
2023/09/17 12:36:36;;;;;;;6.72;3.38;;;;;;;;;;4931030;29;20205;-74
2023/09/17 12:39:01;;;;;;;5.63;2.05;;;;;;;;;;4934776;29;20193;-74
2023/09/17 12:41:26;;;;;;;2.75;2.20;;;;;;;;;;4915151;29;20249;-75
2023/09/17 12:43:51;;;;;;;3.00;2.40;;;;;;;;;;4931049;29;20280;-74
2023/09/17 12:46:17;;;;;;;3.53;2.40;;;;;;;;;;4931938;29;20372;-74
2023/09/17 12:48:42;;;;;;;5.57;2.33;;;;;;;;;;4930160;29;20221;-75
2023/09/17 12:51:07;;;;;;;2.92;2.50;;;;;;;;;;4928201;29;20256;-75
2023/09/17 12:53:33;;;;;;;4.50;2.92;;;;;;;;;;4913145;29;20189;-75
2023/09/17 12:56:00;;;;;;;2.65;2.42;;;;;;;;;;4925141;29;20233;-75
2023/09/17 12:58:25;;;;;;;4.65;2.45;;;;;;;;;;4928370;29;20178;-74
2023/09/17 13:00:51;;;;;;;2.63;2.35;;;;;;;;;;4909994;29;20261;-75
2023/09/17 13:03:18;;;;;;;5.15;2.78;;;;;;;;;;4922889;29;20241;-74
2023/09/17 13:05:43;;;;;;;3.67;2.63;;;;;;;;;;4930298;29;20178;-74
2023/09/17 13:08:09;;;;;;;5.05;2.40;;;;;;;;;;4930822;29;20258;-75
2023/09/17 13:10:36;;;;;;;3.35;2.53;;;;;;;;;;4911350;29;20185;-74
2023/09/17 13:13:05;;;;;;;3.00;2.58;;;;;;;;;;4915497;29;20210;-75
2023/09/17 13:15:30;;;;;;;3.00;2.35;;;;;;;;;;4905311;29;20249;-75
2023/09/17 13:17:55;;;;;;;3.55;2.40;;;;;;;;;;4928719;29;20237;-74
2023/09/17 13:20:22;;;;;;;4.53;2.58;;;;;;;;;;4912069;29;20202;-75
2023/09/17 13:22:48;;;;;;;3.55;2.55;;;;;;;;;;4929983;29;20175;-75
2023/09/17 13:25:13;;;;;;;2.90;2.65;;;;;;;;;;4934286;29;20211;-75
2023/09/17 13:27:38;;;;;;;5.30;3.03;;;;;;;;;;4933798;29;20206;-75
2023/09/17 13:30:05;;;;;;;3.00;2.58;;;;;;;;;;4928507;29;20182;-74
2023/09/17 13:32:31;;;;;;;5.80;2.55;;;;;;;;;;4915777;29;20547;-75
2023/09/17 13:34:57;;;;;;;3.38;2.60;;;;;;;;;;4934450;29;20228;-74
2023/09/17 13:37:22;;;;;;;2.92;2.53;;;;;;;;;;4933000;29;20191;-75
2023/09/17 13:39:52;;;;;;;2.50;2.30;;;;;;;;;;4941194;29;20225;-75
2023/09/17 13:42:17;;;;;;;3.72;3.08;;;;;;;;;;4922618;29;20273;-75
2023/09/17 13:44:43;;;;;;;3.72;2.95;;;;;;;;;;4917767;29;20230;-75
2023/09/17 13:47:09;;;;;;;5.50;2.88;;;;;;;;;;4916758;29;20202;-75
2023/09/17 13:49:34;;;;;;;3.78;2.80;;;;;;;;;;4912393;29;20179;-75
2023/09/17 13:52:00;;;;;;;5.55;2.80;;;;;;;;;;4933757;29;20178;-75
2023/09/17 13:54:25;;;;;;;4.13;2.30;;;;;;;;;;4914199;29;20193;-75
2023/09/17 13:56:50;;;;;;;3.28;2.58;;;;;;;;;;4934604;29;20183;-75
2023/09/17 13:59:15;;;;;;;3.72;2.63;;;;;;;;;;4929636;29;20261;-75
2023/09/17 14:01:43;;;;;;;3.03;2.78;;;;;;;;;;4929720;29;20186;-75
2023/09/17 14:04:08;;;;;;;7.07;2.80;;;;;;;;;;4925177;29;20201;-75
2023/09/17 14:06:33;;;;;;;4.65;2.63;;;;;;;;;;4920933;29;20297;-75
2023/09/17 14:08:59;;;;;;;3.58;2.60;;;;;;;;;;4916152;29;20187;-75
2023/09/17 14:11:26;;;;;;;6.40;2.88;;;;;;;;;;4929923;29;20185;-75
2023/09/17 14:13:51;;;;;;;3.65;2.72;;;;;;;;;;4916940;29;20190;-75
2023/09/17 14:16:16;;;;;;;3.13;2.75;;;;;;;;;;4913236;29;20198;-74
2023/09/17 14:18:41;;;;;;;3.72;2.65;;;;;;;;;;4926541;29;20235;-75
2023/09/17 14:21:07;;;;;;;6.03;2.35;;;;;;;;;;4911863;29;20195;-75
2023/09/17 14:23:32;;;;;;;6.07;2.40;;;;;;;;;;4916802;29;20187;-74
2023/09/17 14:25:57;;;;;;;4.18;2.20;;;;;;;;;;4912761;29;20202;-75
2023/09/17 14:28:23;;;;;;;3.97;2.10;;;;;;;;;;4913356;29;20210;-75
2023/09/17 14:30:48;;;;;;;2.85;2.22;;;;;;;;;;4911703;29;20175;-75
2023/09/17 14:33:15;;;;;;;3.53;2.30;;;;;;;;;;4920756;29;20191;-75
2023/09/17 14:35:40;;;;;;;3.85;2.35;;;;;;;;;;4911340;29;20186;-75
2023/09/17 14:38:05;;;;;;;3.00;2.10;;;;;;;;;;4912498;29;20235;-75